Time;durP1;ratioP1;P1;durP2;ratioP2;P2;SDS_P1;SDS_P2;PMS_P1;PMS_P2;Temp;Humidity;BMP_temperature;BMP_pressure;BME280_temperature;BME280_humidity;BME280_pressure;Samples;Min_cycle;Max_cycle;Signal;HPM_P1;HPM_P2
2023/08/14 00:01:19;;;;;;;1.17;0.95;;;;;;;21.23;60.31;100298.03;4392619;32;32713;-84
2023/08/14 00:03:47;;;;;;;0.40;0.40;;;;;;;21.33;59.85;100306.22;4412085;32;33243;-83
2023/08/14 00:06:15;;;;;;;0.57;0.57;;;;;;;21.13;60.43;100303.28;4397061;32;34944;-84
2023/08/14 00:08:43;;;;;;;0.20;0.20;;;;;;;21.13;60.32;100297.91;4395901;32;33738;-84
2023/08/14 00:11:11;;;;;;;0.17;0.17;;;;;;;21.13;60.17;100300.59;4413000;32;33933;-85
2023/08/14 00:13:51;;;;;;;0.40;0.40;;;;;;;21.16;60.05;100303.00;4398387;32;32958;-84
2023/08/14 00:16:19;;;;;;;0.40;0.22;;;;;;;21.19;60.11;100302.78;4410317;32;33893;-84
2023/08/14 00:18:47;;;;;;;3.37;1.00;;;;;;;21.11;60.12;100301.66;4411761;32;32497;-83
2023/08/14 00:21:15;;;;;;;0.10;0.10;;;;;;;20.88;60.70;100304.34;4399849;32;34270;-83
2023/08/14 00:23:44;;;;;;;0.80;0.73;;;;;;;20.99;60.33;100303.53;4400054;32;33194;-84
2023/08/14 00:26:12;;;;;;;0.85;0.47;;;;;;;20.92;60.61;100304.97;4400490;32;33806;-83
2023/08/14 00:28:40;;;;;;;0.20;0.20;;;;;;;20.89;60.78;100299.84;4411697;32;33979;-83
2023/08/14 00:31:08;;;;;;;0.57;0.57;;;;;;;20.98;60.24;100301.78;4393494;32;33117;-83
2023/08/14 00:33:36;;;;;;;0.40;0.40;;;;;;;20.96;60.37;100298.37;4411854;32;31880;-83
2023/08/14 00:36:07;;;;;;;0.68;0.68;;;;;;;20.88;60.63;100293.59;4400567;32;34313;-83
2023/08/14 00:38:35;;;;;;;0.93;0.77;;;;;;;20.80;60.86;100289.84;4400114;32;33368;-83
2023/08/14 00:41:03;;;;;;;0.20;0.20;;;;;;;20.73;61.12;100293.97;4414520;32;33769;-83
2023/08/14 00:43:31;;;;;;;0.20;0.20;;;;;;;20.77;60.53;100298.13;4389332;32;32861;-84
2023/08/14 00:46:00;;;;;;;1.70;0.95;;;;;;;20.70;60.98;100300.44;4412430;32;33570;-84
2023/08/14 00:48:28;;;;;;;0.47;0.47;;;;;;;20.79;60.49;100298.84;4414641;32;33569;-83
2023/08/14 00:50:56;;;;;;;0.70;0.70;;;;;;;20.66;61.29;100305.19;4385996;32;33894;-83
2023/08/14 00:53:26;;;;;;;0.40;0.40;;;;;;;20.68;61.24;100315.78;4385981;32;32631;-84
2023/08/14 00:55:55;;;;;;;0.20;0.20;;;;;;;20.83;60.46;100311.91;4399194;32;33806;-84
2023/08/14 00:58:23;;;;;;;0.60;0.60;;;;;;;20.55;61.09;100310.50;4392976;32;33714;-83
2023/08/14 01:00:51;;;;;;;0.20;0.20;;;;;;;20.30;62.13;100318.69;4407197;32;33711;-84
2023/08/14 01:03:20;;;;;;;0.90;0.90;;;;;;;20.43;62.06;100319.47;4412760;32;32340;-83
2023/08/14 01:05:48;;;;;;;0.60;0.40;;;;;;;20.47;61.93;100315.63;4414820;32;33566;-83
2023/08/14 01:08:16;;;;;;;0.70;0.70;;;;;;;20.54;61.47;100311.47;4405743;32;33984;-84
2023/08/14 01:10:48;;;;;;;2.17;0.88;;;;;;;20.46;61.76;100304.00;4393038;32;32370;-83
2023/08/14 01:13:17;;;;;;;0.30;0.30;;;;;;;20.33;62.44;100305.06;4406533;32;33397;-83
2023/08/14 01:15:50;;;;;;;0.20;0.20;;;;;;;20.43;62.01;100306.06;4393367;32;33985;-83
2023/08/14 01:18:19;;;;;;;0.10;0.10;;;;;;;20.51;61.22;100309.06;4392551;32;33572;-83
2023/08/14 01:21:15;;;;;;;0.52;0.52;;;;;;;20.71;60.32;100319.09;4387493;32;32963;-84
2023/08/14 01:24:22;;;;;;;1.30;1.20;;;;;;;20.84;60.09;100323.50;4405475;32;33403;-83
2023/08/14 01:26:50;;;;;;;0.57;0.50;;;;;;;20.50;61.03;100315.37;4393472;32;33554;-84
2023/08/14 01:29:18;;;;;;;0.40;0.40;;;;;;;20.35;61.71;100324.56;4399691;32;32387;-84
2023/08/14 01:31:46;;;;;;;0.65;0.65;;;;;;;20.21;62.45;100312.19;4386969;32;33382;-84
2023/08/14 01:34:14;;;;;;;0.47;0.47;;;;;;;20.24;62.26;100309.31;4384493;32;32496;-84
2023/08/14 01:36:53;;;;;;;1.00;0.70;;;;;;;20.31;62.17;100304.31;4413259;32;33766;-83
2023/08/14 01:39:24;;;;;;;0.60;0.60;;;;;;;20.27;62.16;100303.72;4387227;32;33407;-83
2023/08/14 01:42:30;;;;;;;0.30;0.30;;;;;;;20.25;61.83;100296.75;4397933;32;34285;-84
2023/08/14 01:45:07;;;;;;;1.65;1.27;;;;;;;20.17;61.98;100303.53;4405479;32;32056;-84
2023/08/14 01:47:36;;;;;;;0.13;0.13;;;;;;;20.11;62.53;100298.63;4413049;32;34252;-84
2023/08/14 01:50:06;;;;;;;0.55;0.55;;;;;;;20.09;62.40;100303.28;4399779;32;33807;-84
2023/08/14 01:52:34;;;;;;;0.13;0.13;;;;;;;20.14;62.07;100303.78;4386112;32;33239;-84
2023/08/14 01:55:02;;;;;;;0.90;0.88;;;;;;;20.12;62.27;100311.06;4386550;32;32388;-84
2023/08/14 01:57:31;;;;;;;0.82;0.75;;;;;;;20.06;62.23;100310.69;4410009;32;33725;-85
2023/08/14 01:59:59;;;;;;;0.75;0.75;;;;;;;19.93;62.42;100316.09;4398774;32;33755;-84
2023/08/14 02:02:28;;;;;;;2.03;0.60;;;;;;;19.97;62.42;100322.94;4405634;32;33853;-85
2023/08/14 02:04:57;;;;;;;1.55;1.10;;;;;;;20.03;62.22;100317.12;4405509;32;33472;-83
2023/08/14 02:07:24;;;;;;;0.65;0.60;;;;;;;20.07;62.31;100321.28;4398036;32;33871;-83
2023/08/14 02:09:55;;;;;;;1.75;0.85;;;;;;;20.13;61.63;100320.84;4396220;32;34418;-83
2023/08/14 02:12:23;;;;;;;1.65;0.55;;;;;;;20.02;62.06;100315.41;4399183;32;33385;-83
2023/08/14 02:14:51;;;;;;;0.95;0.70;;;;;;;20.03;62.06;100314.44;4392924;32;31699;-84
2023/08/14 02:17:19;;;;;;;0.73;0.65;;;;;;;20.01;61.98;100311.03;4398540;32;33508;-84
2023/08/14 02:19:47;;;;;;;0.40;0.37;;;;;;;19.98;62.51;100313.06;4391760;32;33810;-84
2023/08/14 02:22:14;;;;;;;0.37;0.37;;;;;;;20.16;61.71;100311.69;4398700;32;34817;-84
2023/08/14 02:24:43;;;;;;;0.57;0.47;;;;;;;20.02;62.27;100306.50;4416650;32;32673;-84
2023/08/14 02:27:11;;;;;;;0.85;0.65;;;;;;;19.99;62.06;100310.31;4410624;32;33906;-85
2023/08/14 02:29:38;;;;;;;0.20;0.20;;;;;;;19.99;62.08;100310.31;4409204;32;34275;-84
2023/08/14 02:32:08;;;;;;;0.50;0.50;;;;;;;20.13;61.51;100319.97;4417888;32;34323;-84
2023/08/14 02:34:49;;;;;;;0.15;0.15;;;;;;;19.99;61.87;100315.66;4411778;32;33038;-84
2023/08/14 02:37:18;;;;;;;0.70;0.65;;;;;;;20.05;61.70;100319.69;4373952;32;34535;-84
2023/08/14 02:39:47;;;;;;;0.45;0.45;;;;;;;19.83;62.29;100310.56;4409454;32;33670;-83
2023/08/14 02:42:16;;;;;;;0.22;0.20;;;;;;;19.86;62.35;100314.84;4408600;32;33057;-82
2023/08/14 02:44:45;;;;;;;0.15;0.15;;;;;;;19.81;62.47;100306.31;4410919;32;33660;-83
2023/08/14 02:47:13;;;;;;;2.03;0.98;;;;;;;19.75;62.64;100306.72;4386540;32;32690;-83
2023/08/14 02:49:40;;;;;;;0.95;0.93;;;;;;;19.70;62.93;100312.44;4412036;32;32806;-83
2023/08/14 02:52:08;;;;;;;0.10;0.10;;;;;;;20.02;61.45;100307.38;4404407;32;32911;-83
2023/08/14 02:54:36;;;;;;;1.33;0.95;;;;;;;19.61;62.57;100316.66;4400252;32;33275;-83
2023/08/14 02:57:03;;;;;;;0.37;0.37;;;;;;;19.64;62.74;100324.47;4400480;32;33777;-83
2023/08/14 02:59:33;;;;;;;0.55;0.55;;;;;;;19.68;62.69;100327.78;4388338;32;32937;-83
2023/08/14 03:02:01;;;;;;;0.22;0.22;;;;;;;19.76;62.50;100329.91;4396206;32;32856;-84
2023/08/14 03:04:32;;;;;;;0.68;0.52;;;;;;;19.67;62.44;100326.91;4392247;32;33728;-84
2023/08/14 03:07:00;;;;;;;1.00;0.90;;;;;;;19.51;63.10;100325.44;4398603;32;33450;-83
2023/08/14 03:09:27;;;;;;;2.97;0.40;;;;;;;19.60;62.79;100327.47;4417021;32;32612;-84
2023/08/14 03:11:55;;;;;;;1.48;1.20;;;;;;;19.60;62.80;100327.47;4409179;32;33467;-83
2023/08/14 03:14:23;;;;;;;0.60;0.60;;;;;;;19.59;62.83;100331.94;4384514;32;32243;-83
2023/08/14 03:16:51;;;;;;;0.55;0.55;;;;;;;19.65;62.37;100328.87;4404418;32;33566;-83
2023/08/14 03:19:18;;;;;;;0.60;0.60;;;;;;;19.61;62.56;100324.69;4397566;32;33522;-82
2023/08/14 03:21:50;;;;;;;0.47;0.47;;;;;;;19.44;63.06;100330.38;4397730;32;33806;-82
2023/08/14 03:24:19;;;;;;;0.40;0.40;;;;;;;19.53;62.42;100335.06;4398693;32;33442;-82
2023/08/14 03:26:48;;;;;;;0.22;0.22;;;;;;;19.40;63.35;100331.56;4407752;32;34445;-82
2023/08/14 03:29:17;;;;;;;0.28;0.28;;;;;;;19.48;62.87;100331.87;4412357;32;35340;-83
2023/08/14 03:31:47;;;;;;;0.43;0.43;;;;;;;19.69;61.81;100340.19;4398965;32;33868;-83
2023/08/14 03:34:17;;;;;;;1.25;1.15;;;;;;;19.32;63.31;100339.28;4397424;32;34070;-82
2023/08/14 03:36:45;;;;;;;0.47;0.47;;;;;;;19.46;62.85;100347.19;4410643;32;35404;-83
2023/08/14 03:39:13;;;;;;;1.87;0.90;;;;;;;19.33;63.38;100349.06;4404196;32;34771;-83
2023/08/14 03:41:41;;;;;;;0.60;0.60;;;;;;;19.32;63.57;100347.31;4399174;32;34534;-83
2023/08/14 03:44:09;;;;;;;0.25;0.25;;;;;;;19.36;63.38;100346.13;4409661;32;32912;-83
2023/08/14 03:46:37;;;;;;;1.00;0.70;;;;;;;19.36;63.30;100343.47;4405600;32;33500;-83
2023/08/14 03:49:06;;;;;;;0.28;0.28;;;;;;;19.28;63.30;100345.84;4401151;32;32807;-83
2023/08/14 03:51:33;;;;;;;0.73;0.73;;;;;;;19.39;63.15;100345.94;4401269;32;33706;-83
2023/08/14 03:54:01;;;;;;;1.35;0.98;;;;;;;19.51;62.77;100353.06;4393494;32;32549;-84
2023/08/14 03:56:30;;;;;;;0.85;0.85;;;;;;;19.62;61.92;100355.03;4400889;32;33611;-84
2023/08/14 03:58:57;;;;;;;0.73;0.73;;;;;;;19.79;61.28;100356.44;4398434;32;33612;-84
2023/08/14 04:01:26;;;;;;;0.88;0.70;;;;;;;19.71;61.50;100364.22;4413020;32;34504;-84
2023/08/14 04:03:54;;;;;;;1.37;0.47;;;;;;;19.41;62.87;100360.06;4411729;32;34027;-84
2023/08/14 04:06:22;;;;;;;0.77;0.77;;;;;;;19.37;62.99;100359.44;4412784;32;33233;-84
2023/08/14 04:08:50;;;;;;;0.15;0.15;;;;;;;19.42;63.09;100359.09;4398975;32;32656;-84
2023/08/14 04:11:19;;;;;;;0.30;0.30;;;;;;;19.33;63.29;100365.13;4393646;32;34581;-84
2023/08/14 04:13:46;;;;;;;0.30;0.30;;;;;;;19.36;63.52;100368.41;4401441;32;33429;-84
2023/08/14 04:16:14;;;;;;;2.28;1.75;;;;;;;19.26;64.00;100377.22;4398465;32;34106;-84
2023/08/14 04:18:43;;;;;;;0.55;0.55;;;;;;;19.35;64.09;100368.53;4399955;32;34064;-84
2023/08/14 04:21:10;;;;;;;2.20;0.82;;;;;;;19.46;63.79;100371.28;4401047;32;32084;-84
2023/08/14 04:23:38;;;;;;;1.73;1.20;;;;;;;19.74;62.95;100383.59;4411124;32;32262;-84
2023/08/14 04:26:06;;;;;;;0.35;0.35;;;;;;;19.85;62.51;100372.97;4412420;32;34083;-83
2023/08/14 04:28:36;;;;;;;0.60;0.60;;;;;;;19.97;61.98;100381.91;4405982;32;33999;-83
2023/08/14 04:31:04;;;;;;;0.90;0.80;;;;;;;20.19;61.95;100374.00;4398074;32;33112;-84
2023/08/14 04:33:32;;;;;;;0.95;0.95;;;;;;;19.95;62.70;100375.81;4395727;32;32702;-83
2023/08/14 04:36:00;;;;;;;3.10;1.85;;;;;;;19.82;63.64;100378.53;4413888;32;33750;-84
2023/08/14 04:38:27;;;;;;;1.12;0.75;;;;;;;19.82;63.98;100380.34;4412475;32;33723;-84
2023/08/14 04:40:55;;;;;;;0.55;0.55;;;;;;;19.94;63.69;100372.28;4406009;32;34619;-84
2023/08/14 04:43:23;;;;;;;3.40;0.75;;;;;;;20.05;63.53;100379.53;4393325;32;32116;-84
2023/08/14 04:45:51;;;;;;;0.28;0.28;;;;;;;19.95;63.84;100378.50;4399818;32;32929;-83
2023/08/14 04:48:19;;;;;;;0.95;0.95;;;;;;;20.08;62.97;100373.94;4399172;32;33367;-82
2023/08/14 04:50:47;;;;;;;0.52;0.52;;;;;;;20.20;62.80;100377.53;4393203;32;34281;-82
2023/08/14 04:53:14;;;;;;;9.68;0.73;;;;;;;20.24;62.70;100365.59;4405885;32;34394;-83
2023/08/14 04:55:42;;;;;;;10.93;1.30;;;;;;;20.41;62.45;100369.69;4405003;32;33882;-84
2023/08/14 04:58:10;;;;;;;0.60;0.60;;;;;;;20.68;61.76;100370.31;4411936;32;34034;-84
2023/08/14 05:00:38;;;;;;;0.28;0.28;;;;;;;21.02;60.52;100375.75;4406076;32;34017;-83
2023/08/14 05:03:08;;;;;;;0.52;0.52;;;;;;;21.24;59.98;100366.88;4413238;32;32621;-83
2023/08/14 05:05:35;;;;;;;0.25;0.25;;;;;;;21.15;60.17;100378.34;4399706;32;33284;-83
2023/08/14 05:08:03;;;;;;;0.62;0.62;;;;;;;21.01;60.84;100379.41;4396885;32;34968;-83
2023/08/14 05:10:34;;;;;;;0.40;0.40;;;;;;;21.00;61.73;100379.53;4405963;32;33470;-83
2023/08/14 05:13:03;;;;;;;0.88;0.88;;;;;;;20.97;62.12;100383.31;4405541;32;33805;-84
2023/08/14 05:15:30;;;;;;;0.17;0.17;;;;;;;21.01;61.87;100384.78;4410575;32;33596;-83
2023/08/14 05:17:58;;;;;;;0.60;0.60;;;;;;;21.11;61.72;100384.91;4410263;32;33595;-83
2023/08/14 05:20:27;;;;;;;0.52;0.45;;;;;;;21.18;61.53;100387.00;4395686;32;34248;-84
2023/08/14 05:22:54;;;;;;;0.77;0.77;;;;;;;21.57;60.21;100392.91;4392259;32;32382;-83
2023/08/14 05:25:22;;;;;;;1.92;0.52;;;;;;;21.55;60.42;100386.78;4411348;32;33511;-83
2023/08/14 05:27:50;;;;;;;1.70;1.12;;;;;;;21.52;60.60;100388.88;4411969;32;34096;-83
2023/08/14 05:30:18;;;;;;;1.65;1.17;;;;;;;21.92;59.73;100383.81;4410566;32;32417;-84
2023/08/14 05:32:49;;;;;;;1.25;0.70;;;;;;;21.82;59.84;100385.53;4390086;32;33538;-83
2023/08/14 05:35:16;;;;;;;0.60;0.60;;;;;;;21.85;59.61;100385.31;4416567;32;33483;-83
2023/08/14 05:37:44;;;;;;;2.97;1.33;;;;;;;22.26;58.78;100394.50;4404504;32;34006;-83
2023/08/14 05:40:13;;;;;;;0.57;0.47;;;;;;;22.63;57.93;100386.91;4386848;32;33264;-83
2023/08/14 05:42:40;;;;;;;0.75;0.75;;;;;;;22.82;57.78;100381.66;4393024;32;33341;-83
2023/08/14 05:45:09;;;;;;;0.88;0.88;;;;;;;22.95;57.93;100393.13;4393207;32;33715;-83
2023/08/14 05:47:37;;;;;;;0.60;0.57;;;;;;;23.19;56.65;100378.50;4411788;32;33740;-84
2023/08/14 05:50:05;;;;;;;1.75;1.65;;;;;;;23.24;57.44;100382.50;4398404;32;32477;-83
2023/08/14 05:52:33;;;;;;;1.98;1.58;;;;;;;23.37;57.04;100384.12;4388480;32;32318;-83
2023/08/14 05:55:01;;;;;;;2.83;1.05;;;;;;;23.41;57.02;100378.34;4405608;32;33913;-83
2023/08/14 05:57:29;;;;;;;0.68;0.68;;;;;;;23.63;55.79;100381.81;4410757;32;33973;-83
2023/08/14 05:59:56;;;;;;;1.12;0.95;;;;;;;23.75;55.32;100381.62;4397027;32;33769;-82
2023/08/14 06:02:24;;;;;;;1.25;1.15;;;;;;;23.61;54.49;100384.66;4411056;32;33271;-84
2023/08/14 06:04:52;;;;;;;0.80;0.73;;;;;;;23.74;54.91;100379.06;4403310;32;33492;-84
2023/08/14 06:07:20;;;;;;;0.57;0.57;;;;;;;24.06;54.59;100378.81;4391831;32;33234;-84
2023/08/14 06:09:47;;;;;;;13.95;0.95;;;;;;;24.28;54.37;100385.81;4381182;32;32703;-85
2023/08/14 06:12:15;;;;;;;34.60;1.25;;;;;;;24.44;52.96;100382.59;4396551;32;34095;-84
2023/08/14 06:14:45;;;;;;;2.72;0.70;;;;;;;24.68;51.71;100387.53;4405287;32;33443;-84
2023/08/14 06:17:13;;;;;;;0.50;0.47;;;;;;;24.67;51.78;100386.69;4398622;32;33257;-84
2023/08/14 06:19:40;;;;;;;1.00;0.88;;;;;;;24.76;50.35;100388.53;4386709;32;33022;-84
2023/08/14 06:22:08;;;;;;;1.37;0.47;;;;;;;24.39;52.09;100396.50;4398762;32;32646;-84
2023/08/14 06:24:36;;;;;;;1.77;1.15;;;;;;;24.81;52.14;100395.38;4410891;32;33456;-84
2023/08/14 06:27:03;;;;;;;0.62;0.60;;;;;;;24.69;52.27;100395.53;4404878;32;34403;-85
2023/08/14 06:29:31;;;;;;;2.35;1.25;;;;;;;24.87;51.37;100394.78;4409296;32;34180;-85
2023/08/14 06:32:00;;;;;;;1.12;0.95;;;;;;;24.57;52.05;100393.97;4388243;32;33237;-84
2023/08/14 06:34:28;;;;;;;0.80;0.80;;;;;;;24.68;52.00;100401.06;4408898;32;33660;-84
2023/08/14 06:36:56;;;;;;;0.43;0.43;;;;;;;25.27;50.59;100397.28;4403353;32;34419;-84
2023/08/14 06:39:24;;;;;;;0.93;0.85;;;;;;;25.43;50.16;100391.25;4404960;32;34376;-84
2023/08/14 06:41:51;;;;;;;0.82;0.82;;;;;;;25.90;50.09;100392.03;4397441;32;32982;-84
2023/08/14 06:44:20;;;;;;;3.50;0.40;;;;;;;25.77;49.24;100394.25;4400688;32;33838;-84
2023/08/14 06:46:47;;;;;;;5.10;1.27;;;;;;;25.95;49.40;100399.72;4395828;32;34674;-84
2023/08/14 06:49:16;;;;;;;1.00;0.88;;;;;;;26.12;49.65;100398.91;4397985;32;33510;-84
2023/08/14 06:51:43;;;;;;;1.55;0.80;;;;;;;26.29;49.11;100395.34;4394291;32;32592;-84
2023/08/14 06:54:11;;;;;;;0.85;0.85;;;;;;;26.69;47.46;100395.94;4385486;32;32978;-84
2023/08/14 06:56:39;;;;;;;1.42;0.85;;;;;;;26.98;46.98;100406.47;4400709;32;33745;-84
2023/08/14 06:59:07;;;;;;;0.70;0.70;;;;;;;27.11;48.04;100404.25;4408952;32;33967;-84
2023/08/14 07:01:35;;;;;;;2.47;1.65;;;;;;;27.19;45.00;100393.44;4393942;32;32587;-84
2023/08/14 07:04:04;;;;;;;1.87;0.75;;;;;;;27.21;46.24;100402.28;4407389;32;34344;-84
2023/08/14 07:06:32;;;;;;;0.57;0.57;;;;;;;27.28;45.54;100397.03;4397006;32;33828;-84
2023/08/14 07:09:00;;;;;;;0.70;0.68;;;;;;;27.22;45.56;100393.13;4403845;32;33242;-84
2023/08/14 07:11:36;;;;;;;0.30;0.30;;;;;;;27.43;44.91;100402.72;4395385;32;33519;-84
2023/08/14 07:14:10;;;;;;;0.73;0.73;;;;;;;27.12;45.86;100397.81;4395241;32;32908;-84
2023/08/14 07:16:39;;;;;;;1.87;0.82;;;;;;;27.19;45.33;100390.72;4391259;32;33200;-84
2023/08/14 07:19:07;;;;;;;0.62;0.62;;;;;;;27.37;41.97;100390.66;4404839;32;34082;-84
2023/08/14 07:21:35;;;;;;;0.32;0.32;;;;;;;27.54;40.58;100391.59;4405845;32;33887;-85
2023/08/14 07:24:03;;;;;;;1.33;1.10;;;;;;;27.75;40.90;100394.78;4397643;32;33641;-84
2023/08/14 07:26:31;;;;;;;0.30;0.30;;;;;;;27.98;39.02;100388.75;4400034;32;34000;-84
2023/08/14 07:28:59;;;;;;;0.57;0.57;;;;;;;27.93;39.84;100391.12;4398327;32;32593;-84
2023/08/14 07:31:27;;;;;;;0.73;0.65;;;;;;;27.72;40.13;100389.66;4385169;32;31739;-84
2023/08/14 07:33:55;;;;;;;0.05;0.05;;;;;;;27.97;39.92;100392.50;4410840;32;33948;-85
2023/08/14 07:36:24;;;;;;;0.62;0.62;;;;;;;28.41;39.18;100394.97;4390662;32;32891;-84
2023/08/14 07:38:52;;;;;;;0.30;0.30;;;;;;;28.81;37.98;100386.81;4417090;32;32589;-88
2023/08/14 07:41:21;;;;;;;1.17;1.12;;;;;;;28.74;39.30;100387.69;4418852;32;32527;-88
2023/08/14 07:43:49;;;;;;;1.15;0.88;;;;;;;28.86;40.03;100388.19;4388824;32;32862;-89
2023/08/14 07:46:18;;;;;;;0.20;0.20;;;;;;;28.92;40.60;100382.09;4407135;32;32069;-89
2023/08/14 07:48:45;;;;;;;0.52;0.52;;;;;;;29.27;40.62;100380.84;4411258;32;33848;-89
2023/08/14 07:51:13;;;;;;;1.10;1.00;;;;;;;29.48;39.92;100385.69;4394243;32;31972;-88
2023/08/14 07:53:42;;;;;;;0.20;0.20;;;;;;;29.52;39.12;100381.59;4411494;32;33330;-90
2023/08/14 07:56:11;;;;;;;4.10;1.37;;;;;;;28.91;40.09;100385.78;4412973;32;33794;-89
2023/08/14 07:58:41;;;;;;;1.30;1.20;;;;;;;29.43;39.99;100382.66;4389184;32;32855;-89
2023/08/14 08:01:09;;;;;;;4.35;1.20;;;;;;;29.51;38.96;100380.75;4399561;32;32376;-89
2023/08/14 08:03:37;;;;;;;1.08;0.93;;;;;;;29.58;37.81;100383.69;4402287;32;32731;-89
2023/08/14 08:06:05;;;;;;;0.65;0.65;;;;;;;29.89;37.16;100380.13;4387148;32;33432;-90
2023/08/14 08:08:33;;;;;;;0.20;0.20;;;;;;;29.93;40.02;100384.19;4403108;32;33896;-90
2023/08/14 08:11:01;;;;;;;0.50;0.43;;;;;;;30.16;37.44;100385.13;4415408;32;32477;-89
2023/08/14 08:13:29;;;;;;;0.35;0.35;;;;;;;30.29;35.60;100382.66;4419780;32;33121;-90
2023/08/14 08:15:57;;;;;;;0.80;0.80;;;;;;;30.19;37.47;100386.63;4395521;32;33665;-90
2023/08/14 08:18:25;;;;;;;0.37;0.37;;;;;;;29.90;36.95;100384.53;4388130;32;32884;-90
2023/08/14 08:20:53;;;;;;;0.43;0.43;;;;;;;30.18;36.24;100391.22;4401665;32;31995;-90
2023/08/14 08:23:21;;;;;;;2.05;1.25;;;;;;;30.36;36.12;100390.94;4387645;32;32958;-90
2023/08/14 08:25:51;;;;;;;0.65;0.65;;;;;;;30.30;36.17;100380.78;4413039;32;33374;-90
2023/08/14 08:28:18;;;;;;;0.52;0.50;;;;;;;30.91;35.94;100386.25;4409935;32;33216;-90
2023/08/14 08:30:46;;;;;;;1.10;1.08;;;;;;;30.66;35.44;100383.72;4407088;32;33360;-91
2023/08/14 08:33:27;;;;;;;1.05;0.60;;;;;;;30.97;35.33;100385.53;4399947;32;32962;-89
2023/08/14 08:36:08;;;;;;;0.50;0.50;;;;;;;30.76;32.57;100387.06;4384436;32;32929;-90
2023/08/14 08:38:36;;;;;;;1.15;1.08;;;;;;;31.12;33.77;100389.13;4375872;32;32391;-88
2023/08/14 08:41:06;;;;;;;0.30;0.30;;;;;;;30.98;32.83;100389.94;4391364;32;32311;-90
2023/08/14 08:43:34;;;;;;;0.47;0.47;;;;;;;30.82;32.79;100386.34;4403859;32;32754;-89
2023/08/14 08:46:07;;;;;;;0.73;0.73;;;;;;;31.16;32.21;100390.44;4414287;32;32706;-90
2023/08/14 08:48:38;;;;;;;0.50;0.50;;;;;;;31.84;31.59;100394.81;4391458;32;32538;-89
2023/08/14 08:51:08;;;;;;;0.55;0.55;;;;;;;31.72;31.22;100390.84;4413213;32;33450;-89
2023/08/14 08:53:36;;;;;;;0.50;0.50;;;;;;;31.13;32.06;100396.25;4405182;32;31871;-89
2023/08/14 08:56:04;;;;;;;0.57;0.57;;;;;;;31.18;31.46;100396.53;4408272;32;33097;-90
2023/08/14 08:58:34;;;;;;;22.45;1.25;;;;;;;31.33;32.37;100394.72;4391575;32;33089;-87
2023/08/14 09:01:04;;;;;;;0.47;0.47;;;;;;;31.53;32.63;100386.81;4400946;32;33376;-87
2023/08/14 09:03:33;;;;;;;0.70;0.70;;;;;;;31.71;31.95;100389.13;4394642;32;32653;-90
2023/08/14 09:06:01;;;;;;;0.60;0.60;;;;;;;32.21;31.58;100372.97;4398364;32;33564;-88
2023/08/14 09:08:29;;;;;;;0.30;0.30;;;;;;;31.89;31.85;100375.13;4385752;32;32729;-88
2023/08/14 09:10:57;;;;;;;0.55;0.55;;;;;;;32.22;30.23;100369.19;4391795;32;32566;-87
2023/08/14 09:13:25;;;;;;;0.30;0.30;;;;;;;31.98;30.21;100373.97;4393004;32;33021;-87
2023/08/14 09:16:00;;;;;;;2.50;1.00;;;;;;;31.76;31.52;100369.44;4384763;32;33962;-87
2023/08/14 09:18:30;;;;;;;1.17;0.75;;;;;;;31.79;31.41;100364.47;4387826;32;33261;-88
2023/08/14 09:21:01;;;;;;;0.95;0.73;;;;;;;31.86;32.09;100362.72;4390196;32;31909;-87
2023/08/14 09:23:31;;;;;;;0.98;0.47;;;;;;;32.18;31.29;100365.16;4404016;32;32666;-87
2023/08/14 09:26:00;;;;;;;2.17;1.23;;;;;;;32.31;31.51;100355.19;4397431;32;33417;-87
2023/08/14 09:28:28;;;;;;;0.52;0.52;;;;;;;31.77;30.21;100361.09;4398291;32;33503;-88
2023/08/14 09:31:10;;;;;;;0.70;0.30;;;;;;;31.91;30.75;100367.59;4400482;32;33013;-87
2023/08/14 09:33:39;;;;;;;;;;;;;;;32.19;29.43;100354.03;4375270;32;33210;-88
2023/08/14 09:36:07;;;;;;;1.02;0.93;;;;;;;31.91;28.69;100358.56;4403156;32;33911;-87
2023/08/14 09:38:36;;;;;;;0.93;0.85;;;;;;;32.53;29.28;100366.19;4409224;32;33893;-87
2023/08/14 09:41:04;;;;;;;0.40;0.40;;;;;;;32.53;29.12;100355.25;4384950;32;31636;-88
2023/08/14 09:43:33;;;;;;;0.10;0.10;;;;;;;32.69;28.42;100368.63;4394655;32;33110;-88
2023/08/14 09:46:02;;;;;;;3.78;0.43;;;;;;;32.81;27.43;100352.53;4400308;32;33000;-88
2023/08/14 09:48:40;;;;;;;1.25;0.50;;;;;;;32.61;27.73;100349.59;4402133;32;34136;-88
2023/08/14 09:51:13;;;;;;;2.10;0.93;;;;;;;32.73;27.63;100350.78;4406873;32;32456;-87
2023/08/14 09:53:50;;;;;;;0.95;0.95;;;;;;;32.62;28.41;100354.06;4399060;32;33055;-88
2023/08/14 09:56:19;;;;;;;0.32;0.32;;;;;;;32.77;27.40;100352.06;4392529;32;33573;-88
2023/08/14 09:58:47;;;;;;;0.68;0.40;;;;;;;33.02;27.56;100347.03;4393466;32;34352;-88
2023/08/14 10:01:17;;;;;;;0.28;0.28;;;;;;;33.31;25.99;100345.94;4399348;32;31687;-88
2023/08/14 10:03:49;;;;;;;0.30;0.30;;;;;;;33.51;25.73;100348.81;4415405;32;32260;-88
2023/08/14 10:06:23;;;;;;;0.60;0.40;;;;;;;33.57;25.61;100349.91;4404571;32;32592;-88
2023/08/14 10:08:56;;;;;;;0.50;0.40;;;;;;;33.86;24.81;100352.34;4391163;32;33744;-89
2023/08/14 10:11:28;;;;;;;0.60;0.60;;;;;;;33.90;24.33;100344.56;4411089;32;34005;-89
2023/08/14 10:14:00;;;;;;;0.40;0.40;;;;;;;33.63;24.65;100335.41;4395377;32;32486;-89
2023/08/14 10:16:33;;;;;;;0.10;0.10;;;;;;;33.47;24.62;100346.69;4395218;32;33782;-88
2023/08/14 10:19:04;;;;;;;0.60;0.60;;;;;;;33.19;24.68;100339.38;4395099;32;32736;-88
2023/08/14 10:21:34;;;;;;;0.22;0.22;;;;;;;33.45;23.97;100332.37;4395360;32;34118;-89
2023/08/14 10:24:03;;;;;;;0.10;0.10;;;;;;;34.11;24.16;100338.09;4395394;32;32702;-88
2023/08/14 10:26:32;;;;;;;0.37;0.37;;;;;;;33.37;24.58;100334.19;4407403;32;32576;-89
2023/08/14 10:29:00;;;;;;;0.77;0.70;;;;;;;33.96;23.69;100329.22;4407456;32;32988;-88
2023/08/14 10:31:29;;;;;;;1.45;1.00;;;;;;;33.86;24.39;100326.84;4395029;32;33006;-88
2023/08/14 10:33:58;;;;;;;1.55;0.62;;;;;;;34.18;23.54;100333.47;4407284;32;33165;-88
2023/08/14 10:36:30;;;;;;;0.20;0.17;;;;;;;33.90;24.25;100325.37;4407203;32;33335;-88
2023/08/14 10:39:10;;;;;;;0.47;0.47;;;;;;;33.96;23.22;100321.84;4407314;32;33695;-89
2023/08/14 10:41:45;;;;;;;0.22;0.22;;;;;;;34.23;24.28;100322.75;4412643;32;33414;-92
2023/08/14 10:44:16;;;;;;;0.85;0.85;;;;;;;34.13;24.03;100314.91;4400476;32;33326;-91
2023/08/14 10:46:44;;;;;;;0.65;0.65;;;;;;;34.89;23.75;100314.53;4386829;32;33149;-91
2023/08/14 10:49:12;;;;;;;0.62;0.52;;;;;;;34.46;23.81;100313.28;4406216;32;33020;-91
2023/08/14 10:51:43;;;;;;;0.80;0.70;;;;;;;34.08;23.73;100308.37;4414165;32;32174;-92
2023/08/14 10:54:13;;;;;;;0.80;0.50;;;;;;;34.68;24.62;100300.22;4400011;32;32972;-92
2023/08/14 10:56:46;;;;;;;0.40;0.40;;;;;;;34.79;22.97;100302.31;4409444;32;32980;-92
2023/08/14 10:59:24;;;;;;;0.75;0.73;;;;;;;34.57;24.37;100305.28;4397885;32;32795;-91
2023/08/14 11:02:13;;;;;;;3.30;0.80;;;;;;;34.51;23.02;100295.16;4380508;32;31662;-91
2023/08/14 11:05:08;;;;;;;0.50;0.50;;;;;;;34.94;22.77;100293.84;4391254;32;33125;-91
2023/08/14 11:07:37;;;;;;;0.43;0.40;;;;;;;35.06;23.48;100283.94;4392606;32;33023;-92
2023/08/14 11:10:06;;;;;;;0.20;0.20;;;;;;;34.62;24.02;100289.03;4385705;32;32628;-92
2023/08/14 11:12:56;;;;;;;0.68;0.57;;;;;;;34.95;23.53;100288.16;4409502;32;32268;-92
2023/08/14 11:15:23;;;;;;;0.57;0.57;;;;;;;35.01;22.25;100281.00;4412893;32;33199;-92
2023/08/14 11:17:52;;;;;;;1.23;0.93;;;;;;;35.25;23.16;100283.03;4396726;32;32959;-91
2023/08/14 11:20:27;;;;;;;0.25;0.25;;;;;;;35.32;23.74;100280.25;4395768;32;34655;-92
2023/08/14 11:22:59;;;;;;;0.60;0.60;;;;;;;35.25;23.23;100279.44;4398473;32;32460;-92
2023/08/14 11:25:37;;;;;;;0.43;0.43;;;;;;;35.24;22.81;100275.84;4392343;32;33927;-92
2023/08/14 11:28:05;;;;;;;0.32;0.32;;;;;;;35.00;23.09;100284.81;4401058;32;32791;-92
2023/08/14 11:30:36;;;;;;;0.73;0.57;;;;;;;34.69;23.51;100286.28;4398525;32;32929;-92
2023/08/14 11:33:23;;;;;;;0.43;0.35;;;;;;;34.51;24.13;100277.84;4408944;32;32244;-91
2023/08/14 11:36:11;;;;;;;0.32;0.32;;;;;;;34.69;24.21;100275.31;4397246;32;32452;-92